OOMS/MCT METAR and TAF weather

Enter ICAO airport designator
Station Type Date Time Source
OOMS METAR 2019/10/18 09:50 UTC NOAA

OOMS 180950Z 01008KT CAVOK 36/10 Q1010 NOSIG


Station Type Date Time Source
OOMS Decoded METAR 2019/10/18 09:50 UTC NOAA

Seeb, International Airport, Oman (OOMS) 23-35N 058-17E 17M
Oct 18, 2019 - 05:50 AM EDT / 2019.10.18 0950 UTC
Wind: from the N (010 degrees) at 9 MPH (8 KT):0
Visibility: greater than 7 mile(s):0
Temperature: 96 F (36 C)
Dew Point: 50 F (10 C)
Relative Humidity: 20%
Pressure (altimeter): 29.83 in. Hg (1010 hPa)
ob: OOMS 180950Z 01008KT CAVOK 36/10 Q1010 NOSIG
cycle: 10

Station Type Date Time Source
OOMS TAF 2019/10/18 12:01 UTC NOAA

TAF OOMS 181100Z 1812/1918 04010KT CAVOK
BECMG 1815/1817 21005KT
BECMG 1906/1908 03010KT
BECMG 1915/1917 VRB02KT

Example: see airport list